Time;durP1;ratioP1;P1;durP2;ratioP2;P2;SDS_P1;SDS_P2;PMS_P1;PMS_P2;Temp;Humidity;BMP_temperature;BMP_pressure;BME280_temperature;BME280_humidity;BME280_pressure;Samples;Min_cycle;Max_cycle;Signal;HPM_P1;HPM_P2
2023/10/19 00:01:26;;;;;;;4.67;4.20;;;14.50;95.70;;;;;;4904260;29;20436;-71
2023/10/19 00:03:55;;;;;;;5.17;4.67;;;14.50;95.70;;;;;;4919647;29;21420;-71
2023/10/19 00:06:25;;;;;;;5.40;4.87;;;14.50;95.90;;;;;;4887561;29;20481;-70
2023/10/19 00:08:55;;;;;;;5.37;4.87;;;14.50;96.10;;;;;;4908611;29;20487;-70
2023/10/19 00:11:22;;;;;;;5.03;4.53;;;14.50;96.30;;;;;;4921848;29;20463;-70
2023/10/19 00:13:54;;;;;;;4.80;4.40;;;14.50;96.20;;;;;;4940911;29;20427;-71
2023/10/19 00:16:25;;;;;;;4.83;4.33;;;14.50;96.20;;;;;;4939381;29;20450;-70
2023/10/19 00:18:54;;;;;;;4.97;4.43;;;14.50;96.30;;;;;;4941516;29;20442;-71
2023/10/19 00:21:23;;;;;;;5.33;4.73;;;14.50;96.20;;;;;;4941135;28;21169;-70
2023/10/19 00:23:57;;;;;;;5.23;4.50;;;14.50;96.40;;;;;;4939632;29;20442;-70
2023/10/19 00:26:29;;;;;;;4.97;4.47;;;14.50;96.40;;;;;;4934416;29;20490;-71
2023/10/19 00:28:57;;;;;;;4.67;4.17;;;14.50;96.50;;;;;;4940423;29;20445;-71
2023/10/19 00:31:27;;;;;;;4.33;3.93;;;14.50;96.40;;;;;;4922101;29;21039;-71
2023/10/19 00:33:54;;;;;;;5.87;5.03;;;14.50;96.40;;;;;;4923755;29;20431;-70
2023/10/19 00:36:25;;;;;;;5.60;4.30;;;14.50;96.60;;;;;;4941155;29;21082;-71
2023/10/19 00:38:55;;;;;;;5.10;4.60;;;14.50;96.60;;;;;;4923541;29;20460;-70
2023/10/19 00:41:29;;;;;;;5.10;3.90;;;14.50;96.50;;;;;;4923172;29;20500;-70
2023/10/19 00:44:10;;;;;;;5.83;4.53;;;14.50;96.60;;;;;;4935296;29;20423;-70
2023/10/19 00:49:14;;;;;;;4.87;4.47;;;14.50;96.60;;;;;;4940817;29;20827;-70
2023/10/19 00:57:19;;;;;;;4.73;4.20;;;14.50;96.70;;;;;;4919127;29;21082;-70
2023/10/19 01:00:01;;;;;;;6.33;4.90;;;14.50;96.50;;;;;;4917137;29;20490;-70
2023/10/19 01:05:05;;;;;;;5.10;4.60;;;14.50;96.60;;;;;;4904501;29;20448;-70
2023/10/19 01:07:37;;;;;;;5.53;4.90;;;14.50;96.60;;;;;;4931733;29;20224;-70
2023/10/19 01:10:19;;;;;;;4.93;4.10;;;14.50;96.70;;;;;;4923941;29;21328;-70
2023/10/19 01:12:50;;;;;;;5.30;4.80;;;14.50;96.70;;;;;;4907838;29;20452;-70
2023/10/19 01:17:57;;;;;;;6.10;4.70;;;14.50;96.70;;;;;;4920845;29;20535;-70
2023/10/19 01:28:53;;;;;;;6.33;4.40;;;14.50;96.90;;;;;;4906056;29;20490;-70
2023/10/19 01:33:57;;;;;;;4.87;4.37;;;14.50;97.30;;;;;;4942008;29;20419;-70
2023/10/19 01:36:27;;;;;;;4.70;4.30;;;14.50;97.50;;;;;;4941241;29;20423;-70
2023/10/19 01:39:09;;;;;;;4.40;4.00;;;14.50;97.60;;;;;;4942901;29;20431;-70
2023/10/19 01:41:41;;;;;;;5.20;4.70;;;14.50;97.20;;;;;;4926685;29;20434;-70
2023/10/19 01:44:15;;;;;;;6.10;5.20;;;14.50;97.20;;;;;;4926428;28;20557;-70
2023/10/19 01:46:44;;;;;;;5.90;5.30;;;14.50;97.20;;;;;;4919230;29;20499;-70
2023/10/19 01:49:18;;;;;;;5.43;4.93;;;14.50;97.20;;;;;;4941588;28;20454;-70
2023/10/19 01:51:47;;;;;;;5.10;4.60;;;14.50;97.10;;;;;;4926262;29;20455;-70
2023/10/19 01:54:14;;;;;;;6.40;4.80;;;14.50;97.10;;;;;;4957900;28;20468;-70
2023/10/19 01:56:42;;;;;;;4.93;4.37;;;14.50;97.10;;;;;;4925768;29;20506;-70
2023/10/19 01:59:13;;;;;;;5.57;5.07;;;14.50;97.10;;;;;;4922725;28;20463;-70
2023/10/19 02:01:41;;;;;;;4.80;4.40;;;14.50;97.10;;;;;;4942224;29;20440;-71
2023/10/19 02:04:13;;;;;;;5.23;4.73;;;14.50;97.10;;;;;;4923505;28;20470;-70
2023/10/19 02:06:41;;;;;;;4.73;4.33;;;14.50;97.10;;;;;;4904136;29;20472;-70
2023/10/19 02:11:47;;;;;;;4.60;4.30;;;14.60;97.20;;;;;;4923085;28;20483;-70
2023/10/19 02:14:14;;;;;;;4.87;4.43;;;14.60;97.40;;;;;;4944587;28;20435;-70
2023/10/19 02:16:47;;;;;;;4.80;4.40;;;14.50;97.50;;;;;;4923167;29;20456;-70
2023/10/19 02:19:13;;;;;;;4.83;4.43;;;14.60;97.30;;;;;;4940140;29;20451;-70
2023/10/19 02:21:47;;;;;;;4.60;4.20;;;14.60;97.20;;;;;;4942020;28;21009;-70
2023/10/19 02:24:14;;;;;;;4.70;4.30;;;14.50;97.20;;;;;;4943244;28;20962;-70
2023/10/19 02:26:44;;;;;;;4.37;3.90;;;14.60;97.30;;;;;;4941649;29;20468;-70
2023/10/19 02:29:18;;;;;;;5.13;4.50;;;14.60;97.40;;;;;;4941441;29;21036;-70
2023/10/19 02:31:47;;;;;;;5.70;4.60;;;14.50;97.10;;;;;;4925886;29;20459;-70
2023/10/19 02:34:17;;;;;;;4.20;3.90;;;14.60;97.10;;;;;;4940318;28;21043;-70
2023/10/19 02:36:45;;;;;;;4.33;3.93;;;14.60;97.00;;;;;;4925977;29;20520;-70
2023/10/19 02:39:13;;;;;;;4.87;4.17;;;14.50;97.00;;;;;;4910910;29;21379;-70
2023/10/19 02:41:42;;;;;;;4.63;4.00;;;14.60;97.30;;;;;;4946376;28;20467;-70
2023/10/19 02:46:52;;;;;;;4.63;3.90;;;14.60;97.30;;;;;;4922213;29;20522;-70
2023/10/19 02:49:22;;;;;;;4.20;3.87;;;14.60;97.20;;;;;;4940192;28;21319;-70
2023/10/19 02:51:50;;;;;;;5.60;3.80;;;14.60;97.30;;;;;;4932564;29;20436;-70
2023/10/19 02:54:22;;;;;;;4.33;3.93;;;14.60;97.50;;;;;;4941226;28;21108;-70
2023/10/19 02:56:56;;;;;;;4.53;4.13;;;14.60;97.20;;;;;;4919684;29;20440;-70
2023/10/19 02:59:24;;;;;;;4.80;4.30;;;14.60;97.10;;;;;;4927560;28;20458;-70
2023/10/19 03:02:17;;;;;;;5.00;4.50;;;14.60;97.10;;;;;;4930546;29;21020;-70
2023/10/19 03:04:44;;;;;;;5.00;4.50;;;14.60;97.10;;;;;;4925487;29;20997;-70
2023/10/19 03:07:13;;;;;;;5.10;4.20;;;14.60;97.50;;;;;;4933251;29;20481;-70
2023/10/19 03:09:48;;;;;;;5.27;3.70;;;14.60;97.20;;;;;;4906561;29;20997;-70
2023/10/19 03:12:16;;;;;;;4.20;3.90;;;14.60;97.20;;;;;;4940828;28;20429;-70
2023/10/19 03:14:43;;;;;;;4.53;4.13;;;14.60;97.50;;;;;;4925418;29;20440;-70
2023/10/19 03:17:10;;;;;;;5.43;4.07;;;14.60;97.50;;;;;;4923607;28;20439;-70
2023/10/19 03:19:42;;;;;;;4.00;3.70;;;14.60;97.60;;;;;;4929171;28;21191;-70
2023/10/19 03:22:10;;;;;;;4.33;3.93;;;14.60;97.50;;;;;;4946580;28;20429;-70
2023/10/19 03:24:42;;;;;;;4.27;3.80;;;14.60;97.10;;;;;;4939098;28;20496;-70
2023/10/19 03:27:31;;;;;;;4.17;3.87;;;14.60;97.40;;;;;;4961340;28;20571;-70
2023/10/19 03:29:59;;;;;;;4.17;3.77;;;14.60;97.30;;;;;;4934428;29;21377;-70
2023/10/19 03:32:26;;;;;;;4.17;3.20;;;14.60;97.10;;;;;;4925376;28;20422;-70
2023/10/19 03:34:55;;;;;;;4.07;3.77;;;14.60;96.90;;;;;;4935831;29;20480;-70
2023/10/19 03:37:25;;;;;;;3.87;3.57;;;14.60;96.90;;;;;;4909294;28;21057;-70
2023/10/19 03:39:55;;;;;;;3.73;3.43;;;14.60;97.00;;;;;;4920179;29;20876;-70
2023/10/19 03:42:26;;;;;;;4.63;3.80;;;14.60;97.00;;;;;;4941737;28;20423;-70
2023/10/19 03:44:57;;;;;;;4.07;3.77;;;14.60;96.90;;;;;;4906173;29;20450;-70
2023/10/19 03:47:27;;;;;;;3.93;3.60;;;14.60;96.80;;;;;;4921874;28;20480;-70
2023/10/19 03:49:53;;;;;;;4.30;4.00;;;14.60;96.80;;;;;;4919981;29;20468;-70
2023/10/19 03:52:22;;;;;;;3.80;3.50;;;14.60;96.80;;;;;;4923405;28;20450;-70
2023/10/19 03:54:49;;;;;;;4.10;3.80;;;14.70;97.00;;;;;;4906896;28;20447;-70
2023/10/19 03:57:22;;;;;;;4.30;3.30;;;14.70;97.40;;;;;;4942894;28;20457;-70
2023/10/19 03:59:59;;;;;;;3.93;3.63;;;14.60;97.30;;;;;;4919217;29;20461;-72
2023/10/19 04:02:35;;;;;;;4.03;3.73;;;14.70;97.60;;;;;;4941384;28;20443;-69
2023/10/19 04:05:03;;;;;;;4.70;4.30;;;14.60;97.10;;;;;;4941953;28;20447;-70
2023/10/19 04:07:31;;;;;;;3.77;3.50;;;14.60;97.00;;;;;;4924232;29;20480;-70
2023/10/19 04:12:24;;;;;;;4.20;3.90;;;14.60;97.20;;;;;;4941371;29;20435;-70
2023/10/19 04:14:53;;;;;;;4.00;3.70;;;14.70;97.10;;;;;;4924137;29;21393;-70
2023/10/19 04:17:20;;;;;;;4.20;3.80;;;14.70;97.00;;;;;;4941037;28;20438;-69
2023/10/19 04:19:51;;;;;;;4.70;4.30;;;14.70;97.10;;;;;;4924036;29;20502;-70
2023/10/19 04:22:24;;;;;;;4.13;3.77;;;14.70;97.00;;;;;;4949259;28;20451;-69
2023/10/19 04:24:55;;;;;;;4.97;4.47;;;14.60;96.90;;;;;;4947650;28;20424;-70
2023/10/19 04:27:23;;;;;;;4.27;3.87;;;14.70;97.10;;;;;;4943302;28;20511;-70
2023/10/19 04:29:49;;;;;;;4.40;4.13;;;14.70;97.10;;;;;;4914923;29;20451;-70
2023/10/19 04:32:25;;;;;;;4.00;3.70;;;14.70;97.10;;;;;;4920129;28;20440;-70
2023/10/19 04:34:54;;;;;;;3.93;3.63;;;14.60;97.00;;;;;;4929707;29;20500;-70
2023/10/19 04:37:22;;;;;;;3.50;3.30;;;14.70;97.00;;;;;;4941191;28;20442;-70
2023/10/19 04:39:49;;;;;;;3.40;3.20;;;14.70;97.00;;;;;;4905096;29;20506;-70
2023/10/19 04:42:19;;;;;;;3.90;3.50;;;14.70;97.10;;;;;;4938676;28;20954;-70
2023/10/19 04:44:45;;;;;;;3.80;3.50;;;14.70;97.00;;;;;;4941250;28;20428;-70
2023/10/19 04:47:12;;;;;;;4.20;3.30;;;14.70;97.00;;;;;;4936923;28;20491;-70
2023/10/19 04:49:38;;;;;;;3.90;3.60;;;14.70;97.00;;;;;;4948383;28;21088;-70
2023/10/19 04:52:05;;;;;;;5.63;3.50;;;14.70;97.00;;;;;;4939566;28;20534;-70
2023/10/19 04:54:31;;;;;;;3.80;3.37;;;14.70;97.10;;;;;;4941084;28;20437;-70
2023/10/19 04:56:57;;;;;;;3.80;3.37;;;14.70;97.10;;;;;;4919237;29;20451;-70
2023/10/19 04:59:27;;;;;;;3.83;3.50;;;14.70;97.00;;;;;;4941503;28;20215;-70
2023/10/19 05:01:53;;;;;;;4.00;3.70;;;14.70;97.10;;;;;;4924282;29;20449;-71
2023/10/19 05:04:20;;;;;;;3.53;3.33;;;14.70;97.10;;;;;;4941289;28;20431;-71
2023/10/19 05:06:46;;;;;;;3.67;3.37;;;14.70;97.00;;;;;;4945834;28;20479;-71
2023/10/19 05:09:12;;;;;;;3.20;3.00;;;14.70;97.10;;;;;;4938468;29;20475;-71
2023/10/19 05:11:39;;;;;;;3.57;3.27;;;14.70;97.00;;;;;;4927418;29;20427;-71
2023/10/19 05:14:08;;;;;;;4.40;4.03;;;14.70;97.00;;;;;;4940170;28;20444;-73
2023/10/19 05:16:34;;;;;;;5.10;3.10;;;14.70;97.00;;;;;;4938641;28;20455;-72
2023/10/19 05:19:04;;;;;;;3.60;3.33;;;14.70;97.00;;;;;;4946342;28;20462;-72
2023/10/19 05:21:33;;;;;;;4.10;3.30;;;14.70;97.00;;;;;;4934729;28;21044;-75
2023/10/19 05:24:00;;;;;;;3.70;3.40;;;14.70;96.90;;;;;;4929462;29;20438;-72
2023/10/19 05:26:28;;;;;;;3.83;3.27;;;14.70;97.00;;;;;;4941254;28;20554;-72
2023/10/19 05:28:58;;;;;;;3.67;3.37;;;14.70;97.00;;;;;;4941912;29;20948;-71
2023/10/19 05:31:24;;;;;;;3.40;3.10;;;14.70;97.10;;;;;;4926654;29;20436;-72
2023/10/19 05:33:50;;;;;;;3.33;3.13;;;14.70;97.00;;;;;;4929314;29;20513;-72
2023/10/19 05:36:17;;;;;;;4.10;3.43;;;14.70;97.20;;;;;;4909694;29;20447;-72
2023/10/19 05:38:44;;;;;;;3.53;3.33;;;14.70;97.30;;;;;;4911506;29;20473;-72
2023/10/19 05:41:12;;;;;;;3.60;3.30;;;14.70;97.30;;;;;;4942482;29;20468;-72
2023/10/19 05:43:41;;;;;;;3.30;3.10;;;14.70;97.20;;;;;;4943415;29;20446;-72
2023/10/19 05:46:07;;;;;;;4.10;3.80;;;14.70;97.20;;;;;;4927166;29;20567;-73
2023/10/19 05:48:33;;;;;;;3.80;3.53;;;14.70;97.20;;;;;;4925776;29;21245;-72
2023/10/19 05:51:01;;;;;;;4.10;3.80;;;14.70;97.30;;;;;;4924939;29;20528;-72
2023/10/19 05:53:29;;;;;;;4.30;3.50;;;14.70;97.30;;;;;;4940926;29;20467;-71
2023/10/19 05:55:55;;;;;;;4.07;3.67;;;14.70;97.40;;;;;;4925796;29;20452;-71
2023/10/19 05:58:21;;;;;;;3.93;3.63;;;14.70;97.20;;;;;;4924753;29;20903;-71
2023/10/19 06:00:47;;;;;;;3.93;3.60;;;14.70;97.20;;;;;;4924790;29;20454;-71
2023/10/19 06:03:13;;;;;;;3.80;3.50;;;14.70;97.20;;;;;;4914235;29;20670;-71
2023/10/19 06:05:40;;;;;;;3.50;3.20;;;14.70;97.20;;;;;;4924736;29;20462;-71
2023/10/19 06:08:11;;;;;;;3.40;3.10;;;14.70;97.10;;;;;;4942500;29;20483;-71
2023/10/19 06:10:39;;;;;;;4.03;3.33;;;14.70;97.10;;;;;;4924460;29;20442;-71
2023/10/19 06:13:09;;;;;;;3.80;3.27;;;14.70;97.00;;;;;;4920786;29;21006;-71
2023/10/19 06:15:38;;;;;;;3.60;3.30;;;14.70;97.10;;;;;;4917301;29;21010;-71
2023/10/19 06:18:05;;;;;;;3.93;3.63;;;14.70;97.20;;;;;;4940266;28;20453;-72
2023/10/19 06:20:33;;;;;;;3.67;3.37;;;14.70;97.10;;;;;;4924503;29;20428;-72
2023/10/19 06:23:04;;;;;;;3.60;3.40;;;14.70;97.10;;;;;;4923412;29;21268;-71
2023/10/19 06:25:34;;;;;;;3.90;3.50;;;14.70;97.20;;;;;;4941154;29;20442;-72
2023/10/19 06:28:04;;;;;;;4.10;3.33;;;14.70;97.20;;;;;;4941036;29;20891;-72
2023/10/19 06:30:31;;;;;;;4.33;3.63;;;14.70;97.10;;;;;;4932412;29;20446;-71
2023/10/19 06:33:02;;;;;;;3.93;3.63;;;14.70;97.30;;;;;;4932536;29;21163;-71
2023/10/19 06:35:31;;;;;;;4.00;3.50;;;14.70;97.30;;;;;;4923944;29;21423;-71
2023/10/19 06:38:04;;;;;;;3.70;3.50;;;14.70;97.20;;;;;;4939611;29;21025;-72
2023/10/19 06:40:35;;;;;;;3.50;3.20;;;14.70;97.30;;;;;;4923918;29;20439;-71
2023/10/19 06:43:02;;;;;;;3.60;3.30;;;14.80;97.30;;;;;;4940842;29;20444;-71
2023/10/19 06:45:31;;;;;;;4.40;3.40;;;14.80;97.30;;;;;;4907214;29;20471;-72
2023/10/19 06:47:59;;;;;;;4.10;3.37;;;14.80;97.30;;;;;;4939780;29;20482;-71
2023/10/19 06:50:26;;;;;;;3.20;3.00;;;14.80;97.30;;;;;;4924431;29;20526;-71
2023/10/19 06:52:54;;;;;;;3.40;3.10;;;14.80;97.30;;;;;;4941165;29;20470;-71
2023/10/19 06:55:20;;;;;;;3.07;2.87;;;14.80;97.30;;;;;;4941081;29;21122;-71
2023/10/19 06:57:55;;;;;;;3.90;3.57;;;14.80;97.20;;;;;;4924000;29;20470;-72
2023/10/19 07:00:26;;;;;;;3.23;3.03;;;14.80;97.20;;;;;;4931842;29;20459;-72
2023/10/19 07:02:54;;;;;;;3.50;3.20;;;14.80;97.20;;;;;;4923658;29;20451;-72
2023/10/19 07:05:24;;;;;;;3.60;3.30;;;14.80;97.20;;;;;;4941638;29;20474;-72
2023/10/19 07:07:54;;;;;;;3.10;2.80;;;14.80;97.20;;;;;;4939840;29;20477;-72
2023/10/19 07:10:21;;;;;;;4.30;3.30;;;14.80;97.20;;;;;;4937593;29;20518;-72
2023/10/19 07:12:54;;;;;;;3.20;2.83;;;14.80;97.30;;;;;;4941062;29;20537;-71
2023/10/19 07:15:23;;;;;;;3.27;2.97;;;14.80;97.30;;;;;;4938020;29;20456;-72
2023/10/19 07:17:56;;;;;;;3.77;3.40;;;14.80;97.30;;;;;;4939435;29;20937;-71
2023/10/19 07:20:25;;;;;;;5.40;3.40;;;14.80;97.20;;;;;;4941038;29;20449;-72
2023/10/19 07:22:55;;;;;;;5.10;3.60;;;14.80;97.20;;;;;;4924323;29;20500;-71
2023/10/19 07:25:25;;;;;;;3.73;3.43;;;14.80;97.20;;;;;;4923897;29;20451;-72
2023/10/19 07:27:52;;;;;;;3.33;3.03;;;14.80;97.20;;;;;;4940395;29;20520;-71
2023/10/19 07:30:22;;;;;;;3.40;3.10;;;14.80;97.20;;;;;;4940365;28;20483;-72
2023/10/19 07:32:54;;;;;;;3.40;3.10;;;14.80;97.20;;;;;;4907453;29;20477;-72
2023/10/19 07:35:22;;;;;;;4.10;3.60;;;14.80;97.20;;;;;;4921956;29;20538;-72
2023/10/19 07:37:51;;;;;;;3.50;3.20;;;14.80;97.20;;;;;;4940263;29;20432;-71
2023/10/19 07:40:18;;;;;;;3.50;3.20;;;14.80;97.20;;;;;;4938579;29;20554;-71
2023/10/19 07:42:49;;;;;;;3.70;3.40;;;14.80;97.20;;;;;;4923795;29;20594;-72
2023/10/19 07:45:15;;;;;;;3.70;3.30;;;14.80;97.20;;;;;;4924589;28;20452;-71
2023/10/19 07:47:44;;;;;;;3.90;3.60;;;14.80;97.20;;;;;;4929722;29;20481;-71
2023/10/19 07:50:17;;;;;;;4.07;3.30;;;14.80;97.20;;;;;;4940091;28;20465;-71
2023/10/19 07:52:43;;;;;;;4.00;3.70;;;14.80;97.10;;;;;;4939590;28;20442;-72
2023/10/19 07:55:10;;;;;;;3.43;3.13;;;14.80;97.20;;;;;;4938578;28;20464;-71
2023/10/19 07:57:37;;;;;;;2.97;2.77;;;14.80;97.10;;;;;;4924400;29;20448;-71
2023/10/19 08:00:05;;;;;;;4.03;3.73;;;14.80;97.10;;;;;;4974627;23;20511;-73
2023/10/19 08:02:34;;;;;;;3.53;3.23;;;14.80;97.20;;;;;;4911012;29;20800;-73
2023/10/19 08:05:01;;;;;;;5.30;3.43;;;14.80;97.20;;;;;;4904155;29;20420;-73
2023/10/19 08:07:28;;;;;;;5.40;3.50;;;14.90;97.30;;;;;;4919882;29;20501;-73
2023/10/19 08:09:58;;;;;;;3.20;2.93;;;14.90;97.30;;;;;;4922987;29;20453;-73
2023/10/19 08:12:26;;;;;;;4.03;3.57;;;14.90;97.40;;;;;;4914969;28;20498;-73
2023/10/19 08:14:57;;;;;;;3.60;3.30;;;14.90;97.40;;;;;;4915717;29;20562;-73
2023/10/19 08:17:26;;;;;;;3.40;3.10;;;14.80;97.30;;;;;;4923327;28;20449;-73
2023/10/19 08:19:52;;;;;;;3.47;3.17;;;14.80;97.30;;;;;;4940334;28;20443;-73
2023/10/19 08:22:19;;;;;;;3.57;3.27;;;14.90;97.30;;;;;;4940810;29;20437;-73
2023/10/19 08:24:49;;;;;;;3.70;3.13;;;14.90;97.30;;;;;;4922773;29;20451;-73
2023/10/19 08:27:17;;;;;;;3.70;3.37;;;14.90;97.40;;;;;;4915221;28;20506;-73
2023/10/19 08:29:43;;;;;;;3.50;3.20;;;14.90;97.40;;;;;;4940252;28;20474;-73
2023/10/19 08:32:09;;;;;;;3.67;3.37;;;14.90;97.50;;;;;;4939930;29;21290;-73
2023/10/19 08:34:36;;;;;;;3.33;3.00;;;14.90;97.40;;;;;;4948460;28;20602;-73
2023/10/19 08:37:04;;;;;;;4.10;3.30;;;14.90;97.40;;;;;;4940487;29;20961;-73
2023/10/19 08:39:36;;;;;;;3.70;3.30;;;14.90;97.40;;;;;;4940408;28;21189;-73
2023/10/19 08:42:05;;;;;;;4.17;3.87;;;14.90;97.50;;;;;;4938461;28;20534;-73
2023/10/19 08:44:33;;;;;;;3.90;3.20;;;14.90;97.50;;;;;;4931597;28;21333;-73
2023/10/19 08:47:01;;;;;;;4.07;3.70;;;14.90;97.50;;;;;;4924068;29;20504;-73
2023/10/19 08:49:28;;;;;;;3.23;3.03;;;14.90;97.60;;;;;;4939522;28;20977;-71
2023/10/19 08:51:55;;;;;;;3.43;3.13;;;14.90;97.50;;;;;;4923765;29;20442;-72
2023/10/19 08:54:25;;;;;;;3.50;3.20;;;14.90;97.80;;;;;;4923499;29;20877;-74
2023/10/19 08:56:55;;;;;;;3.43;3.13;;;14.90;97.50;;;;;;4922443;28;20460;-72
2023/10/19 08:59:21;;;;;;;3.70;3.40;;;14.90;97.50;;;;;;4909178;28;20476;-71
2023/10/19 09:01:49;;;;;;;3.53;3.33;;;14.90;97.50;;;;;;4945741;28;20439;-72
2023/10/19 09:04:21;;;;;;;3.40;3.10;;;14.90;97.50;;;;;;4916755;28;21072;-72
2023/10/19 09:06:55;;;;;;;4.50;2.87;;;15.00;97.60;;;;;;4938409;28;20586;-72
2023/10/19 09:09:21;;;;;;;3.10;2.90;;;14.90;97.70;;;;;;4922995;29;20486;-72
2023/10/19 09:11:52;;;;;;;3.77;3.47;;;15.00;97.70;;;;;;4928035;28;21276;-72
2023/10/19 09:14:43;;;;;;;3.70;3.40;;;15.00;97.70;;;;;;4937929;28;20428;-71
2023/10/19 09:17:10;;;;;;;4.93;3.33;;;15.00;97.80;;;;;;4935148;28;20448;-71
2023/10/19 09:19:49;;;;;;;3.43;3.20;;;15.00;97.90;;;;;;4950850;28;20442;-72
2023/10/19 09:22:22;;;;;;;3.73;3.40;;;15.00;98.20;;;;;;4908847;29;20823;-72
2023/10/19 09:24:50;;;;;;;3.67;3.40;;;15.00;97.90;;;;;;4935566;28;20433;-72
2023/10/19 09:27:19;;;;;;;3.80;3.50;;;15.00;97.90;;;;;;4916804;28;20483;-72
2023/10/19 09:29:48;;;;;;;3.60;3.10;;;15.00;97.90;;;;;;4937725;29;20470;-71
2023/10/19 09:32:22;;;;;;;3.70;3.40;;;15.10;97.90;;;;;;4948302;28;20975;-72
2023/10/19 09:34:49;;;;;;;3.60;3.10;;;15.10;97.90;;;;;;4929697;29;20437;-73
2023/10/19 09:37:17;;;;;;;4.83;3.70;;;15.10;98.00;;;;;;4954704;28;20842;-72
2023/10/19 09:39:43;;;;;;;3.97;3.67;;;15.10;98.10;;;;;;4922422;29;20476;-71
2023/10/19 09:42:16;;;;;;;3.70;3.40;;;15.10;98.10;;;;;;4940963;29;20434;-72
2023/10/19 09:44:47;;;;;;;5.63;4.30;;;15.10;98.10;;;;;;4946783;28;20990;-74
2023/10/19 09:47:37;;;;;;;3.80;3.50;;;15.20;98.10;;;;;;4919896;28;21097;-74
2023/10/19 09:50:06;;;;;;;4.30;3.23;;;15.20;98.10;;;;;;4922583;29;20550;-74
2023/10/19 09:52:37;;;;;;;3.90;3.60;;;15.20;98.00;;;;;;4933993;28;20431;-74
2023/10/19 09:55:37;;;;;;;3.33;3.07;;;15.20;98.10;;;;;;4917673;28;20492;-75
2023/10/19 09:58:14;;;;;;;3.40;3.10;;;15.20;98.10;;;;;;4923024;29;20471;-75
2023/10/19 10:00:51;;;;;;;3.33;3.00;;;15.30;98.10;;;;;;4902500;29;20437;-74
2023/10/19 10:03:48;;;;;;;4.27;3.20;;;15.30;98.10;;;;;;4932067;29;20603;-74
2023/10/19 10:06:50;;;;;;;3.73;3.27;;;15.30;98.10;;;;;;4926714;29;20910;-74
2023/10/19 10:09:21;;;;;;;4.83;3.70;;;15.30;98.00;;;;;;4892128;29;20477;-75
2023/10/19 10:11:53;;;;;;;3.50;3.20;;;15.30;98.20;;;;;;4916045;29;21324;-75
2023/10/19 10:14:25;;;;;;;3.57;3.20;;;15.40;98.10;;;;;;4912741;29;20458;-73
2023/10/19 10:17:09;;;;;;;3.60;3.30;;;15.40;98.00;;;;;;4923809;29;20430;-74
2023/10/19 10:19:35;;;;;;;3.57;3.27;;;15.40;98.10;;;;;;4891404;29;20458;-73
2023/10/19 10:22:14;;;;;;;6.20;3.40;;;15.40;98.00;;;;;;4929705;29;20514;-73
2023/10/19 10:24:44;;;;;;;4.97;3.17;;;15.40;98.00;;;;;;4931236;29;21002;-73
2023/10/19 10:27:14;;;;;;;3.70;3.20;;;15.50;98.10;;;;;;4909079;29;20476;-73
2023/10/19 10:29:59;;;;;;;4.10;2.93;;;15.50;98.30;;;;;;4908553;29;20464;-73
2023/10/19 10:32:47;;;;;;;4.90;2.90;;;15.50;98.20;;;;;;4924561;29;20446;-73
2023/10/19 10:35:36;;;;;;;4.10;3.17;;;15.50;98.20;;;;;;4890720;29;21251;-73
2023/10/19 10:38:14;;;;;;;7.10;3.57;;;15.50;98.00;;;;;;4927422;29;20485;-72
2023/10/19 10:40:50;;;;;;;3.60;3.30;;;15.50;98.20;;;;;;4905605;29;20418;-73
2023/10/19 10:43:19;;;;;;;3.20;2.90;;;15.60;98.10;;;;;;4913312;29;20436;-74
2023/10/19 10:45:45;;;;;;;7.10;3.70;;;15.60;98.00;;;;;;4908618;29;20474;-72
2023/10/19 10:48:15;;;;;;;3.40;3.10;;;15.60;98.00;;;;;;4914591;29;20474;-73
2023/10/19 10:50:46;;;;;;;3.80;3.40;;;15.70;98.00;;;;;;4927340;29;20441;-72
2023/10/19 10:53:17;;;;;;;3.00;2.80;;;15.70;97.90;;;;;;4906384;29;20425;-73
2023/10/19 10:55:44;;;;;;;3.90;3.30;;;15.70;97.90;;;;;;4935668;29;20514;-73
2023/10/19 10:58:16;;;;;;;6.37;3.27;;;15.70;97.70;;;;;;4926255;29;20958;-71
2023/10/19 11:00:48;;;;;;;4.97;3.20;;;15.70;97.70;;;;;;4921662;29;20546;-73
2023/10/19 11:03:17;;;;;;;3.37;3.07;;;15.70;97.70;;;;;;4924180;28;20465;-72
2023/10/19 11:05:48;;;;;;;3.53;2.80;;;15.70;97.90;;;;;;4916254;29;21192;-73
2023/10/19 11:08:22;;;;;;;5.03;3.13;;;15.80;98.00;;;;;;4893832;29;20506;-74
2023/10/19 11:10:48;;;;;;;6.30;3.10;;;15.80;98.00;;;;;;4937683;29;20877;-73
2023/10/19 11:13:17;;;;;;;3.80;2.80;;;15.80;97.90;;;;;;4946024;28;20440;-72
2023/10/19 11:15:53;;;;;;;3.80;3.40;;;15.80;98.00;;;;;;4937928;28;20812;-71
2023/10/19 11:18:35;;;;;;;3.30;3.00;;;15.80;98.10;;;;;;4934786;28;20441;-73
2023/10/19 11:21:10;;;;;;;5.80;3.07;;;15.90;98.20;;;;;;4956530;28;21253;-73
2023/10/19 11:23:45;;;;;;;6.07;3.07;;;15.90;98.10;;;;;;4933184;29;20477;-73
2023/10/19 11:26:22;;;;;;;4.10;3.03;;;15.90;98.00;;;;;;4958784;23;20590;-77
2023/10/19 11:29:04;;;;;;;3.40;3.10;;;15.90;98.10;;;;;;4913666;29;20452;-77
2023/10/19 11:31:48;;;;;;;4.23;3.83;;;15.90;98.20;;;;;;4924116;29;20440;-76
2023/10/19 11:34:18;;;;;;;4.77;2.97;;;16.00;98.30;;;;;;4941723;28;20569;-77
2023/10/19 11:36:56;;;;;;;3.50;3.20;;;15.90;98.20;;;;;;4924115;29;20440;-76
2023/10/19 11:39:28;;;;;;;3.40;2.70;;;16.00;98.20;;;;;;4924093;29;20471;-76
2023/10/19 11:41:56;;;;;;;3.93;3.20;;;16.00;98.70;;;;;;4907138;29;20520;-77
2023/10/19 11:44:22;;;;;;;3.63;3.33;;;16.00;98.40;;;;;;4940521;29;20770;-77
2023/10/19 11:46:55;;;;;;;5.90;3.67;;;16.00;98.30;;;;;;4922592;29;20518;-76
2023/10/19 11:49:22;;;;;;;4.23;3.60;;;16.00;98.20;;;;;;4906817;29;21007;-77
2023/10/19 11:51:48;;;;;;;4.40;3.50;;;16.00;98.60;;;;;;4941148;29;20510;-77
2023/10/19 11:54:16;;;;;;;6.00;3.37;;;16.00;98.30;;;;;;4940900;28;20433;-77
2023/10/19 11:56:43;;;;;;;4.83;3.17;;;16.00;98.20;;;;;;4940552;28;20854;-77
2023/10/19 11:59:20;;;;;;;4.47;3.33;;;16.10;98.20;;;;;;4908293;29;20992;-77
2023/10/19 12:01:47;;;;;;;5.43;3.10;;;16.10;98.40;;;;;;4924479;29;20450;-76
2023/10/19 12:04:17;;;;;;;4.27;3.40;;;16.10;98.30;;;;;;4923195;29;20491;-76
2023/10/19 12:06:46;;;;;;;4.47;2.70;;;16.10;98.20;;;;;;4923395;29;20427;-76
2023/10/19 12:09:15;;;;;;;5.77;3.50;;;16.10;98.30;;;;;;4940178;29;20535;-76
2023/10/19 12:11:42;;;;;;;3.20;2.90;;;16.10;98.30;;;;;;4923217;29;20475;-76
2023/10/19 12:14:11;;;;;;;3.60;3.30;;;16.10;98.30;;;;;;4907576;29;20448;-76
2023/10/19 12:16:39;;;;;;;6.40;3.20;;;16.10;98.40;;;;;;4923309;29;21405;-76
2023/10/19 12:19:07;;;;;;;4.93;2.93;;;16.20;98.40;;;;;;4923937;29;21118;-76
2023/10/19 12:21:33;;;;;;;4.13;2.93;;;16.20;98.30;;;;;;4923663;29;20440;-75
2023/10/19 12:24:01;;;;;;;3.30;2.80;;;16.20;98.40;;;;;;4923270;29;20479;-76
2023/10/19 12:26:29;;;;;;;3.60;2.87;;;16.20;98.40;;;;;;4914407;28;20462;-76
2023/10/19 12:28:56;;;;;;;5.77;3.20;;;16.20;98.40;;;;;;4921801;29;21054;-76
2023/10/19 12:31:27;;;;;;;3.80;3.07;;;16.20;98.40;;;;;;4906523;29;21111;-75
2023/10/19 12:33:53;;;;;;;3.17;2.87;;;16.20;98.40;;;;;;4922510;29;21042;-76
2023/10/19 12:38:55;;;;;;;5.40;3.10;;;16.30;98.50;;;;;;4940774;28;20455;-73
2023/10/19 12:41:25;;;;;;;3.43;3.13;;;16.30;98.60;;;;;;4923047;29;21037;-75
2023/10/19 12:43:52;;;;;;;4.93;2.70;;;16.30;98.70;;;;;;4923280;29;20502;-74
2023/10/19 12:46:19;;;;;;;2.83;2.63;;;16.30;98.60;;;;;;4939955;29;20428;-75
2023/10/19 12:48:48;;;;;;;5.17;3.00;;;16.30;98.50;;;;;;4922261;29;20527;-74
2023/10/19 12:51:15;;;;;;;3.20;2.67;;;16.30;98.40;;;;;;4907418;29;20549;-74
2023/10/19 12:53:45;;;;;;;3.43;3.07;;;16.30;98.40;;;;;;4923046;29;20458;-75
2023/10/19 12:56:14;;;;;;;3.30;3.00;;;16.40;98.50;;;;;;4922557;29;20497;-74
2023/10/19 12:58:41;;;;;;;3.43;3.03;;;16.40;98.50;;;;;;4905440;29;20580;-74
2023/10/19 13:01:11;;;;;;;4.80;3.03;;;16.40;98.40;;;;;;4922775;29;20681;-77
2023/10/19 13:03:39;;;;;;;4.17;2.73;;;16.40;98.30;;;;;;4905787;29;20436;-74
2023/10/19 13:06:11;;;;;;;4.10;3.00;;;16.40;98.40;;;;;;4921344;29;20532;-75
2023/10/19 13:08:43;;;;;;;6.50;3.10;;;16.40;98.50;;;;;;4915171;29;20486;-74
2023/10/19 13:11:14;;;;;;;4.97;3.43;;;16.40;98.60;;;;;;4922662;29;20486;-75
2023/10/19 13:13:40;;;;;;;5.03;3.23;;;16.40;98.50;;;;;;4922339;29;20476;-75
2023/10/19 13:16:09;;;;;;;4.43;3.23;;;16.40;98.30;;;;;;4940268;29;20479;-75
2023/10/19 13:18:36;;;;;;;5.53;2.87;;;16.40;98.30;;;;;;4907061;29;20508;-74
2023/10/19 13:21:04;;;;;;;3.87;2.97;;;16.40;98.20;;;;;;4923100;29;20971;-75
2023/10/19 13:23:33;;;;;;;4.00;3.60;;;16.40;98.30;;;;;;4938925;29;20436;-74
2023/10/19 13:26:17;;;;;;;3.93;3.43;;;16.50;98.30;;;;;;4922866;29;20460;-75
2023/10/19 13:28:45;;;;;;;3.93;2.70;;;16.40;98.40;;;;;;4941348;28;20690;-74
2023/10/19 13:31:14;;;;;;;3.27;2.97;;;16.50;98.40;;;;;;4910400;29;20440;-76
2023/10/19 13:33:45;;;;;;;2.90;2.40;;;16.50;98.40;;;;;;4911648;29;20886;-74
2023/10/19 13:36:16;;;;;;;4.33;3.60;;;16.50;98.40;;;;;;4926618;29;21279;-74
2023/10/19 13:38:43;;;;;;;3.83;2.77;;;16.50;98.50;;;;;;4941846;29;20546;-72